createdAt,value
2019-05-29T00:00:31.722Z,0.00
2019-05-29T00:01:31.649Z,0.00
2019-05-29T00:02:31.718Z,0.00
2019-05-29T00:03:31.640Z,0.00
2019-05-29T00:04:31.621Z,0.00
2019-05-29T00:05:31.664Z,0.00
2019-05-29T00:06:31.602Z,0.00
2019-05-29T00:07:31.586Z,0.00
2019-05-29T00:08:31.572Z,0.00
2019-05-29T00:09:31.566Z,0.00
2019-05-29T00:10:31.559Z,0.00
2019-05-29T00:11:31.602Z,0.00
2019-05-29T00:12:31.566Z,0.00
2019-05-29T00:13:31.580Z,0.00
2019-05-29T00:14:31.519Z,0.00
2019-05-29T00:15:31.520Z,0.00
2019-05-29T00:16:31.524Z,0.00
2019-05-29T00:17:31.482Z,0.00
2019-05-29T00:18:31.490Z,0.00
2019-05-29T00:19:31.461Z,0.00
2019-05-29T00:20:31.450Z,0.00
2019-05-29T00:21:31.454Z,0.00
2019-05-29T00:22:31.445Z,0.00
2019-05-29T00:23:31.418Z,0.00
2019-05-29T00:24:31.414Z,0.00
2019-05-29T00:25:31.396Z,0.00
2019-05-29T00:26:31.442Z,0.00
2019-05-29T00:27:31.382Z,0.00
2019-05-29T00:28:31.366Z,0.00
2019-05-29T00:29:31.362Z,0.00
2019-05-29T00:30:31.336Z,0.00
2019-05-29T00:31:31.429Z,0.00
2019-05-29T00:32:31.332Z,0.00
2019-05-29T00:33:31.310Z,0.00
2019-05-29T00:34:31.315Z,0.00
2019-05-29T00:35:31.302Z,0.00
2019-05-29T00:36:31.308Z,0.00
2019-05-29T00:37:31.273Z,0.00
2019-05-29T00:38:31.251Z,0.00
2019-05-29T00:39:31.245Z,0.00
2019-05-29T00:40:31.233Z,0.00
2019-05-29T00:41:31.242Z,0.00
2019-05-29T00:42:31.204Z,0.00
2019-05-29T00:43:31.206Z,0.00
2019-05-29T00:44:34.221Z,0.00
2019-05-29T00:45:31.189Z,0.00
2019-05-29T00:46:31.186Z,0.00
2019-05-29T00:47:31.179Z,0.00
2019-05-29T00:48:31.148Z,0.00
2019-05-29T00:49:31.138Z,0.00
2019-05-29T00:50:31.120Z,0.00
2019-05-29T00:51:31.134Z,0.00
2019-05-29T00:52:31.102Z,0.00
2019-05-29T00:53:31.106Z,0.00
2019-05-29T00:54:31.092Z,0.00
2019-05-29T00:55:31.062Z,0.00
2019-05-29T00:56:31.096Z,0.00
2019-05-29T00:57:31.063Z,0.00
2019-05-29T00:58:31.048Z,0.00
2019-05-29T00:59:31.027Z,0.00
2019-05-29T01:00:31.024Z,0.00
2019-05-29T01:01:31.008Z,0.00
2019-05-29T01:02:31.136Z,0.00
2019-05-29T01:03:30.990Z,0.00
2019-05-29T01:04:30.982Z,0.00
2019-05-29T01:05:30.961Z,0.00
2019-05-29T01:06:30.954Z,0.00
2019-05-29T01:07:30.962Z,0.00
2019-05-29T01:08:30.954Z,0.00
2019-05-29T01:09:30.935Z,0.00
2019-05-29T01:10:30.933Z,0.00
2019-05-29T01:11:30.902Z,0.00
2019-05-29T01:12:30.904Z,0.00
2019-05-29T01:13:31.018Z,0.00
2019-05-29T01:14:30.860Z,0.00
2019-05-29T01:15:30.872Z,0.00
2019-05-29T01:16:30.852Z,0.00
2019-05-29T01:17:30.868Z,0.00
2019-05-29T01:18:30.820Z,0.00
2019-05-29T01:19:30.836Z,0.00
2019-05-29T01:20:30.800Z,0.00
2019-05-29T01:21:30.804Z,0.00
2019-05-29T01:22:30.772Z,0.00
2019-05-29T01:23:30.938Z,0.00
2019-05-29T01:24:30.766Z,0.00
2019-05-29T01:25:30.754Z,0.00
2019-05-29T01:26:30.732Z,0.00
2019-05-29T01:27:30.733Z,0.00
2019-05-29T01:28:30.751Z,0.00
2019-05-29T01:29:30.711Z,0.00
2019-05-29T01:30:30.694Z,0.00
2019-05-29T01:31:30.683Z,0.00
2019-05-29T01:32:30.670Z,0.00
2019-05-29T01:33:30.683Z,0.00
2019-05-29T01:34:30.654Z,0.00
2019-05-29T01:35:30.649Z,0.00
2019-05-29T01:36:30.657Z,0.00
2019-05-29T01:37:30.643Z,0.00
2019-05-29T01:38:30.671Z,0.00
2019-05-29T01:39:30.609Z,0.00
2019-05-29T01:40:30.585Z,0.00
2019-05-29T01:41:30.569Z,0.00
2019-05-29T01:42:30.575Z,0.00
2019-05-29T01:43:30.601Z,0.00
2019-05-29T01:44:30.548Z,0.00
2019-05-29T01:45:30.551Z,0.00
2019-05-29T01:46:30.554Z,0.00
2019-05-29T01:47:30.560Z,0.00
2019-05-29T01:48:30.511Z,0.00
2019-05-29T01:49:30.546Z,0.00
2019-05-29T01:50:30.486Z,0.00
2019-05-29T01:51:30.481Z,0.00
2019-05-29T01:52:30.510Z,0.00
2019-05-29T01:53:30.441Z,0.00
2019-05-29T01:54:30.458Z,0.00
2019-05-29T01:55:30.418Z,0.00
2019-05-29T01:56:30.419Z,0.00
2019-05-29T01:57:30.438Z,0.00
2019-05-29T01:58:30.403Z,0.00
2019-05-29T01:59:30.387Z,0.00
2019-05-29T02:00:30.390Z,0.00
2019-05-29T02:01:30.361Z,0.00
2019-05-29T02:02:30.388Z,0.00
2019-05-29T02:03:30.363Z,0.00
2019-05-29T02:04:30.367Z,0.00
2019-05-29T02:05:30.309Z,0.00
2019-05-29T02:06:30.301Z,0.00
2019-05-29T02:07:30.300Z,0.00
2019-05-29T02:08:30.299Z,0.00
2019-05-29T02:09:30.299Z,0.00
2019-05-29T02:10:30.259Z,0.00
2019-05-29T02:11:32.219Z,0.00
2019-05-29T02:12:30.275Z,0.00
2019-05-29T02:13:30.235Z,0.00
2019-05-29T02:14:30.239Z,0.00
2019-05-29T02:15:33.816Z,0.00
2019-05-29T02:16:30.203Z,4.00
2019-05-29T02:17:32.209Z,4.00
2019-05-29T02:18:39.293Z,4.00
2019-05-29T02:19:30.181Z,4.00
2019-05-29T02:20:30.154Z,0.00
2019-05-29T02:21:30.133Z,4.00
2019-05-29T02:22:30.125Z,4.00
2019-05-29T02:23:30.117Z,4.00
2019-05-29T02:24:30.141Z,4.00
2019-05-29T02:25:30.110Z,4.00
2019-05-29T02:26:30.109Z,4.00
2019-05-29T02:27:30.076Z,8.00
2019-05-29T02:28:30.064Z,4.00
2019-05-29T02:29:30.074Z,8.00
2019-05-29T02:30:30.823Z,8.00
2019-05-29T02:31:30.060Z,8.00
2019-05-29T02:32:30.058Z,8.00
2019-05-29T02:33:38.817Z,8.00
2019-05-29T02:34:30.094Z,12.00
2019-05-29T02:35:30.359Z,12.00
2019-05-29T02:36:29.991Z,12.00
2019-05-29T02:37:29.990Z,16.00
2019-05-29T02:38:29.971Z,16.00
2019-05-29T02:39:29.998Z,16.00
2019-05-29T02:40:30.214Z,20.00
2019-05-29T02:41:29.997Z,20.00
2019-05-29T02:42:29.910Z,24.00
2019-05-29T02:43:30.208Z,28.00
2019-05-29T02:44:29.894Z,28.00
2019-05-29T02:45:50.282Z,32.00
2019-05-29T02:46:30.887Z,36.00
2019-05-29T02:47:30.340Z,44.00
2019-05-29T02:48:31.631Z,44.00
2019-05-29T02:49:30.446Z,52.00
2019-05-29T02:50:31.304Z,52.00
2019-05-29T02:51:30.459Z,52.00
2019-05-29T02:52:30.744Z,56.00
2019-05-29T02:53:30.822Z,56.00
2019-05-29T02:54:31.945Z,60.00
2019-05-29T02:55:30.950Z,64.00
2019-05-29T02:56:31.273Z,68.00
2019-05-29T02:57:30.943Z,72.00
2019-05-29T02:58:31.589Z,80.00
2019-05-29T02:59:31.743Z,80.00
2019-05-29T03:00:31.386Z,84.00
2019-05-29T03:01:29.932Z,92.00
2019-05-29T03:02:30.134Z,100.00
2019-05-29T03:03:33.159Z,108.00
2019-05-29T03:04:32.512Z,116.00
2019-05-29T03:05:29.930Z,128.00
2019-05-29T03:06:30.309Z,132.00
2019-05-29T03:07:30.781Z,144.00
2019-05-29T03:08:32.015Z,152.00
2019-05-29T03:09:30.715Z,160.00
2019-05-29T03:10:30.883Z,172.00
2019-05-29T03:11:31.079Z,192.00
2019-05-29T03:12:31.321Z,212.00
2019-05-29T03:13:30.602Z,244.00
2019-05-29T03:14:30.143Z,272.00
2019-05-29T03:15:29.774Z,304.00
2019-05-29T03:16:30.961Z,332.00
2019-05-29T03:17:29.887Z,360.00
2019-05-29T03:18:30.213Z,380.00
2019-05-29T03:19:30.368Z,408.00
2019-05-29T03:20:30.359Z,424.00
2019-05-29T03:21:30.739Z,444.00
2019-05-29T03:22:31.415Z,460.00
2019-05-29T03:23:30.939Z,484.00
2019-05-29T03:24:30.832Z,504.00
2019-05-29T03:25:30.598Z,528.00
2019-05-29T03:26:30.744Z,544.00
2019-05-29T03:27:29.933Z,568.00
2019-05-29T03:28:29.967Z,596.00
2019-05-29T03:29:30.021Z,612.00
2019-05-29T03:30:33.779Z,632.00
2019-05-29T03:31:37.413Z,644.00
2019-05-29T03:33:48.242Z,636.00
2019-05-29T03:34:46.103Z,648.00
2019-05-29T03:35:47.455Z,664.00
2019-05-29T03:36:47.171Z,684.00
2019-05-29T03:37:41.349Z,716.00
2019-05-29T03:38:40.361Z,752.00
2019-05-29T03:39:40.345Z,776.00
2019-05-29T03:40:40.311Z,796.00
2019-05-29T03:41:40.309Z,816.00
2019-05-29T03:42:40.320Z,856.00
2019-05-29T03:43:40.297Z,888.00
2019-05-29T03:44:40.292Z,900.00
2019-05-29T03:45:49.409Z,892.00
2019-05-29T03:46:45.209Z,904.00
2019-05-29T03:47:41.272Z,920.00
2019-05-29T03:48:40.253Z,928.00
2019-05-29T03:49:49.430Z,920.00
2019-05-29T03:50:40.216Z,888.00
2019-05-29T03:51:40.195Z,832.00
2019-05-29T03:52:40.191Z,780.00
2019-05-29T03:53:40.231Z,748.00
2019-05-29T03:54:40.171Z,736.00
2019-05-29T03:55:40.193Z,736.00
2019-05-29T03:56:40.170Z,756.00
2019-05-29T03:57:40.127Z,772.00
2019-05-29T03:58:40.126Z,792.00
2019-05-29T03:59:40.142Z,816.00
2019-05-29T04:00:46.091Z,844.00
2019-05-29T04:01:41.111Z,880.00
2019-05-29T04:02:40.087Z,924.00
2019-05-29T04:03:40.137Z,960.00
2019-05-29T04:04:40.050Z,976.00
2019-05-29T04:05:40.052Z,988.00
2019-05-29T04:06:40.063Z,1000.00
2019-05-29T04:07:40.035Z,1020.00
2019-05-29T04:08:40.066Z,1048.00
2019-05-29T04:09:40.006Z,1072.00
2019-05-29T04:10:40.019Z,1124.00
2019-05-29T04:11:39.987Z,1216.00
2019-05-29T04:12:39.988Z,1320.00
2019-05-29T04:13:40.445Z,1448.00
2019-05-29T04:14:40.022Z,1572.00
2019-05-29T04:15:39.936Z,1712.00
2019-05-29T04:16:57.556Z,1844.00
2019-05-29T04:17:40.936Z,1948.00
2019-05-29T04:18:39.917Z,2044.00
2019-05-29T04:19:39.936Z,2100.00
2019-05-29T04:20:39.917Z,2104.00
2019-05-29T04:21:39.904Z,2072.00
2019-05-29T04:22:39.880Z,2052.00
2019-05-29T04:23:39.850Z,2028.00
2019-05-29T04:24:39.870Z,2004.00
2019-05-29T04:25:42.726Z,2036.00
2019-05-29T04:26:39.810Z,2096.00
2019-05-29T04:27:39.816Z,2156.00
2019-05-29T04:28:39.816Z,2208.00
2019-05-29T04:29:39.836Z,2236.00
2019-05-29T04:30:39.803Z,2264.00
2019-05-29T04:31:39.762Z,2312.00
2019-05-29T04:32:39.757Z,2388.00
2019-05-29T04:33:39.737Z,2436.00
2019-05-29T04:34:40.012Z,2440.00
2019-05-29T04:35:40.023Z,2420.00
2019-05-29T04:36:39.730Z,2380.00
2019-05-29T04:37:40.221Z,2364.00
2019-05-29T04:38:40.441Z,2392.00
2019-05-29T04:39:39.688Z,2452.00
2019-05-29T04:40:39.879Z,2532.00
2019-05-29T04:41:39.655Z,2608.00
2019-05-29T04:42:40.189Z,2672.00
2019-05-29T04:43:39.951Z,2748.00
2019-05-29T04:44:41.106Z,2828.00
2019-05-29T04:45:40.183Z,2904.00
2019-05-29T04:46:40.747Z,2996.00
2019-05-29T04:47:39.917Z,3096.00
2019-05-29T04:48:40.403Z,3172.00
2019-05-29T04:49:39.979Z,3236.00
2019-05-29T04:50:40.677Z,3284.00
2019-05-29T04:51:40.024Z,3344.00
2019-05-29T04:52:40.381Z,3448.00
2019-05-29T04:53:39.968Z,3532.00
2019-05-29T04:54:40.285Z,3568.00
2019-05-29T04:55:39.657Z,3564.00
2019-05-29T04:56:39.506Z,3592.00
2019-05-29T04:57:39.585Z,3640.00
2019-05-29T04:58:39.483Z,3660.00
2019-05-29T04:59:39.474Z,3684.00
2019-05-29T05:00:39.514Z,3708.00
2019-05-29T05:01:39.431Z,3756.00
2019-05-29T05:02:39.611Z,3604.00
2019-05-29T05:03:39.558Z,3500.00
2019-05-29T05:04:39.498Z,3492.00
2019-05-29T05:05:39.727Z,3416.00
2019-05-29T05:06:39.568Z,3376.00
2019-05-29T05:07:39.741Z,3360.00
2019-05-29T05:08:39.766Z,3324.00
2019-05-29T05:09:39.659Z,3220.00
2019-05-29T05:10:40.931Z,3168.00
2019-05-29T05:11:39.663Z,3164.00
2019-05-29T05:12:40.087Z,3176.00
2019-05-29T05:13:39.769Z,3120.00
2019-05-29T05:14:39.839Z,3040.00
2019-05-29T05:15:40.163Z,3068.00
2019-05-29T05:16:39.970Z,3120.00
2019-05-29T05:17:40.142Z,3068.00
2019-05-29T05:18:40.228Z,2992.00
2019-05-29T05:19:40.129Z,2948.00
2019-05-29T05:20:40.376Z,2980.00
2019-05-29T05:21:40.289Z,3032.00
2019-05-29T05:22:40.964Z,3032.00
2019-05-29T05:23:40.603Z,3132.00
2019-05-29T05:24:43.419Z,3232.00
2019-05-29T05:25:40.838Z,3396.00
2019-05-29T05:26:40.360Z,3604.00
2019-05-29T05:27:40.488Z,3752.00
2019-05-29T05:28:42.129Z,3732.00
2019-05-29T05:29:40.503Z,3564.00
2019-05-29T05:30:39.198Z,3764.00
2019-05-29T05:31:39.200Z,3732.00
2019-05-29T05:32:39.100Z,3824.00
2019-05-29T05:33:39.134Z,4064.00
2019-05-29T05:34:39.138Z,3988.00
2019-05-29T05:35:39.155Z,4080.00
2019-05-29T05:36:39.068Z,4152.00
2019-05-29T05:37:39.037Z,4256.00
2019-05-29T05:38:39.045Z,4288.00
2019-05-29T05:39:39.145Z,4324.00
2019-05-29T05:40:41.306Z,4420.00
2019-05-29T05:41:39.084Z,4388.00
2019-05-29T05:42:39.050Z,4392.00
2019-05-29T05:43:39.069Z,4472.00
2019-05-29T05:44:39.129Z,4600.00
2019-05-29T05:45:39.191Z,4500.00
2019-05-29T05:46:39.256Z,4516.00
2019-05-29T05:47:54.671Z,4524.00
2019-05-29T05:48:39.929Z,4504.00
2019-05-29T05:49:39.504Z,4464.00
2019-05-29T05:51:43.168Z,4468.00
2019-05-29T05:52:39.504Z,4516.00
2019-05-29T05:53:39.470Z,4480.00
2019-05-29T05:54:39.557Z,4444.00
2019-05-29T05:55:39.793Z,4264.00
2019-05-29T05:56:39.718Z,4080.00
2019-05-29T05:57:39.754Z,3908.00
2019-05-29T05:58:39.955Z,3732.00
2019-05-29T05:59:39.885Z,3484.00
2019-05-29T06:00:39.888Z,3320.00
2019-05-29T06:01:40.051Z,3216.00
2019-05-29T06:02:40.024Z,3136.00
2019-05-29T06:03:40.451Z,3072.00
2019-05-29T06:04:39.932Z,3036.00
2019-05-29T06:05:38.728Z,3032.00
2019-05-29T06:06:38.762Z,2984.00
2019-05-29T06:07:38.715Z,2944.00
2019-05-29T06:08:38.706Z,2912.00
2019-05-29T06:09:38.684Z,2872.00
2019-05-29T06:10:38.688Z,2852.00
2019-05-29T06:11:38.690Z,2928.00
2019-05-29T06:12:38.806Z,3024.00
2019-05-29T06:13:38.663Z,3124.00
2019-05-29T06:14:38.739Z,2944.00
2019-05-29T06:15:38.634Z,2960.00
2019-05-29T06:16:38.717Z,2996.00
2019-05-29T06:17:38.859Z,3228.00
2019-05-29T06:18:38.597Z,3288.00
2019-05-29T06:19:39.002Z,3284.00
2019-05-29T06:20:39.028Z,3276.00
2019-05-29T06:21:38.834Z,3256.00
2019-05-29T06:22:39.132Z,3236.00
2019-05-29T06:23:38.906Z,2912.00
2019-05-29T06:24:38.864Z,3188.00
2019-05-29T06:25:40.236Z,3176.00
2019-05-29T06:26:38.966Z,3168.00
2019-05-29T06:27:39.206Z,3152.00
2019-05-29T06:28:39.119Z,3152.00
2019-05-29T06:29:39.362Z,3164.00
2019-05-29T06:30:40.495Z,3224.00
2019-05-29T06:31:39.416Z,3284.00
2019-05-29T06:32:39.496Z,3332.00
2019-05-29T06:33:39.459Z,3392.00
2019-05-29T06:34:39.601Z,3468.00
2019-05-29T06:35:39.650Z,3520.00
2019-05-29T06:36:39.527Z,3532.00
2019-05-29T06:37:39.467Z,3572.00
2019-05-29T06:38:40.233Z,3596.00
2019-05-29T06:39:41.723Z,3616.00
2019-05-29T06:40:38.773Z,3636.00
2019-05-29T06:41:38.343Z,3664.00
2019-05-29T06:42:38.381Z,3672.00
2019-05-29T06:43:38.312Z,3664.00
2019-05-29T06:44:39.864Z,3664.00
2019-05-29T06:45:38.295Z,3632.00
2019-05-29T06:46:38.433Z,3588.00
2019-05-29T06:47:38.793Z,3532.00
2019-05-29T06:48:44.802Z,3424.00
2019-05-29T06:49:40.126Z,3456.00
2019-05-29T06:50:39.405Z,3744.00
2019-05-29T06:51:39.321Z,3700.00
2019-05-29T06:52:39.411Z,3524.00
2019-05-29T06:53:39.710Z,3472.00
2019-05-29T06:54:38.220Z,3432.00
2019-05-29T06:55:38.216Z,3448.00
2019-05-29T06:56:38.226Z,3436.00
2019-05-29T06:57:38.251Z,3440.00
2019-05-29T06:58:38.217Z,3432.00
2019-05-29T06:59:38.298Z,3480.00
2019-05-29T07:00:39.489Z,3524.00
2019-05-29T07:01:39.391Z,3592.00
2019-05-29T07:02:38.493Z,3648.00
2019-05-29T07:03:39.591Z,3612.00
2019-05-29T07:04:38.315Z,3452.00
2019-05-29T07:05:38.091Z,3516.00
2019-05-29T07:06:38.559Z,3804.00
2019-05-29T07:07:38.333Z,4036.00
2019-05-29T07:08:42.363Z,4176.00
2019-05-29T07:09:39.032Z,4244.00
2019-05-29T07:10:38.478Z,4308.00
2019-05-29T07:11:39.046Z,4456.00
2019-05-29T07:12:38.434Z,4804.00
2019-05-29T07:13:41.015Z,5300.00
2019-05-29T07:14:40.036Z,5652.00
2019-05-29T07:15:38.563Z,5828.00
2019-05-29T07:16:45.265Z,5832.00
2019-05-29T07:17:38.980Z,5224.00
2019-05-29T07:18:38.624Z,4904.00
2019-05-29T07:19:48.967Z,5100.00
2019-05-29T07:20:38.932Z,5520.00
2019-05-29T07:21:38.811Z,5768.00
2019-05-29T07:22:38.881Z,5932.00
2019-05-29T07:23:38.798Z,6344.00
2019-05-29T07:24:38.766Z,6932.00
2019-05-29T07:25:38.770Z,7652.00
2019-05-29T07:26:38.926Z,7072.00
2019-05-29T07:27:38.849Z,6216.00
2019-05-29T07:28:55.508Z,6028.00
2019-05-29T07:29:39.051Z,6696.00
2019-05-29T07:30:39.189Z,7576.00
2019-05-29T07:31:38.797Z,7996.00
2019-05-29T07:32:39.231Z,7160.00
2019-05-29T07:33:38.930Z,6608.00
2019-05-29T07:34:53.732Z,7356.00
2019-05-29T07:35:39.291Z,7944.00
2019-05-29T07:36:37.993Z,8104.00
2019-05-29T07:37:37.863Z,8208.00
2019-05-29T07:38:37.771Z,7636.00
2019-05-29T07:39:37.717Z,8312.00
2019-05-29T07:40:38.417Z,8588.00
2019-05-29T07:41:37.718Z,7836.00
2019-05-29T07:42:40.349Z,7228.00
2019-05-29T07:43:39.664Z,6172.00
2019-05-29T07:44:38.043Z,5800.00
2019-05-29T07:45:37.845Z,5524.00
2019-05-29T07:46:37.910Z,5752.00
2019-05-29T07:47:38.267Z,6624.00
2019-05-29T07:48:38.404Z,6116.00
2019-05-29T07:49:39.841Z,5076.00
2019-05-29T07:50:38.710Z,5156.00
2019-05-29T07:51:38.150Z,5112.00
2019-05-29T07:52:38.550Z,4944.00
2019-05-29T07:53:38.161Z,4816.00
2019-05-29T07:54:37.574Z,4564.00
2019-05-29T07:55:40.438Z,4776.00
2019-05-29T07:56:38.329Z,4268.00
2019-05-29T07:57:38.834Z,4008.00
2019-05-29T07:58:38.704Z,4012.00
2019-05-29T07:59:38.558Z,4072.00
2019-05-29T08:00:59.783Z,4344.00
2019-05-29T08:01:38.719Z,5216.00
2019-05-29T08:02:37.466Z,5432.00
2019-05-29T08:03:39.098Z,5544.00
2019-05-29T08:04:37.432Z,6392.00
2019-05-29T08:05:37.424Z,7152.00
2019-05-29T08:06:37.438Z,7072.00
2019-05-29T08:07:37.433Z,6524.00
2019-05-29T08:08:37.401Z,6236.00
2019-05-29T08:09:37.408Z,7552.00
2019-05-29T08:10:37.368Z,9220.00
2019-05-29T08:11:37.427Z,9884.00
2019-05-29T08:12:41.690Z,9912.00
2019-05-29T08:13:39.430Z,9456.00
2019-05-29T08:14:37.378Z,9356.00
2019-05-29T08:15:52.025Z,8628.00
2019-05-29T08:16:39.668Z,7800.00
2019-05-29T08:17:37.301Z,7256.00
2019-05-29T08:18:37.322Z,6200.00
2019-05-29T08:19:37.288Z,6352.00
2019-05-29T08:20:37.273Z,6056.00
2019-05-29T08:21:37.296Z,5864.00
2019-05-29T08:22:37.305Z,5992.00
2019-05-29T08:23:37.240Z,6124.00
2019-05-29T08:24:37.254Z,6004.00
2019-05-29T08:25:37.216Z,5828.00
2019-05-29T08:26:37.216Z,5560.00
2019-05-29T08:27:37.248Z,6132.00
2019-05-29T08:28:37.172Z,6648.00
2019-05-29T08:29:37.160Z,6924.00
2019-05-29T08:30:37.185Z,6208.00
2019-05-29T08:31:37.199Z,5128.00
2019-05-29T08:32:37.156Z,4740.00
2019-05-29T08:33:37.116Z,4916.00
2019-05-29T08:34:37.119Z,4796.00
2019-05-29T08:35:37.099Z,4908.00
2019-05-29T08:36:37.088Z,5440.00
2019-05-29T08:37:37.188Z,6144.00
2019-05-29T08:38:37.112Z,7040.00
2019-05-29T08:39:37.227Z,8296.00
2019-05-29T08:40:37.081Z,9268.00
2019-05-29T08:41:37.027Z,9572.00
2019-05-29T08:42:37.027Z,10080.00
2019-05-29T08:43:37.070Z,10552.00
2019-05-29T08:44:37.000Z,10244.00
2019-05-29T08:45:36.986Z,8724.00
2019-05-29T08:46:37.005Z,8372.00
2019-05-29T08:47:36.998Z,7500.00
2019-05-29T08:48:36.999Z,6784.00
2019-05-29T08:49:36.956Z,5520.00
2019-05-29T08:50:36.940Z,5236.00
2019-05-29T08:51:36.933Z,5012.00
2019-05-29T08:52:36.904Z,5136.00
2019-05-29T08:53:36.946Z,5684.00
2019-05-29T08:54:36.957Z,6608.00
2019-05-29T08:55:36.931Z,7212.00
2019-05-29T08:56:36.890Z,7636.00
2019-05-29T08:57:36.866Z,8692.00
2019-05-29T08:58:37.868Z,9808.00
2019-05-29T08:59:36.843Z,9952.00
2019-05-29T09:00:36.849Z,9548.00
2019-05-29T09:01:36.895Z,9980.00
2019-05-29T09:02:46.651Z,10212.00
2019-05-29T09:03:36.860Z,10660.00
2019-05-29T09:04:36.826Z,10488.00
2019-05-29T09:05:36.769Z,10588.00
2019-05-29T09:06:36.779Z,11064.00
2019-05-29T09:07:36.751Z,10204.00
2019-05-29T09:08:37.051Z,8516.00
2019-05-29T09:09:36.802Z,7484.00
2019-05-29T09:10:36.702Z,7244.00
2019-05-29T09:11:36.711Z,5784.00
2019-05-29T09:12:36.718Z,4728.00
2019-05-29T09:13:36.724Z,4304.00
2019-05-29T09:14:36.690Z,4372.00
2019-05-29T09:15:36.648Z,4760.00
2019-05-29T09:16:36.703Z,5456.00
2019-05-29T09:17:36.641Z,5732.00
2019-05-29T09:18:36.619Z,5976.00
2019-05-29T09:19:36.816Z,6168.00
2019-05-29T09:21:00.092Z,6348.00
2019-05-29T09:21:37.588Z,6480.00
2019-05-29T09:22:36.578Z,6836.00
2019-05-29T09:23:36.606Z,7832.00
2019-05-29T09:24:36.602Z,8968.00
2019-05-29T09:25:36.575Z,10344.00
2019-05-29T09:26:36.548Z,10776.00
2019-05-29T09:27:36.581Z,10712.00
2019-05-29T09:28:36.528Z,12320.00
2019-05-29T09:29:36.556Z,12692.00
2019-05-29T09:30:36.545Z,12804.00
2019-05-29T09:31:36.498Z,13252.00
2019-05-29T09:32:50.599Z,12292.00
2019-05-29T09:33:37.593Z,11864.00
2019-05-29T09:34:36.599Z,10836.00
2019-05-29T09:35:36.482Z,8780.00
2019-05-29T09:36:36.443Z,7972.00
2019-05-29T09:37:37.512Z,8036.00
2019-05-29T09:38:36.405Z,7580.00
2019-05-29T09:39:36.505Z,8132.00
2019-05-29T09:40:36.415Z,7760.00
2019-05-29T09:41:36.404Z,6864.00
2019-05-29T09:42:36.388Z,5900.00
2019-05-29T09:43:36.377Z,5552.00
2019-05-29T09:44:39.357Z,5856.00
2019-05-29T09:45:36.329Z,6576.00
2019-05-29T09:46:36.328Z,7340.00
2019-05-29T09:47:36.316Z,7812.00
2019-05-29T09:48:49.090Z,8616.00
2019-05-29T09:49:39.330Z,8300.00
2019-05-29T09:50:49.485Z,8560.00
2019-05-29T09:51:37.270Z,8980.00
2019-05-29T09:52:36.274Z,9024.00
2019-05-29T09:53:36.262Z,8512.00
2019-05-29T09:54:36.300Z,7884.00
2019-05-29T09:55:36.215Z,7212.00
2019-05-29T09:56:36.209Z,7228.00
2019-05-29T09:57:36.211Z,7660.00
2019-05-29T09:58:36.183Z,8880.00
2019-05-29T09:59:36.212Z,8908.00
2019-05-29T10:00:36.159Z,8192.00
2019-05-29T10:01:36.153Z,7968.00
2019-05-29T10:02:36.145Z,8244.00
2019-05-29T10:03:36.141Z,8396.00
2019-05-29T10:04:36.193Z,8572.00
2019-05-29T10:05:36.115Z,8440.00
2019-05-29T10:06:36.099Z,8464.00
2019-05-29T10:07:36.091Z,8340.00
2019-05-29T10:08:36.159Z,7468.00
2019-05-29T10:09:36.130Z,7104.00
2019-05-29T10:10:36.053Z,7288.00
2019-05-29T10:11:36.099Z,8528.00
2019-05-29T10:12:36.133Z,10520.00
2019-05-29T10:13:36.018Z,11464.00
2019-05-29T10:14:36.050Z,10316.00
2019-05-29T10:15:36.039Z,9904.00
2019-05-29T10:16:36.025Z,9696.00
2019-05-29T10:17:36.000Z,9016.00
2019-05-29T10:18:36.017Z,8052.00
2019-05-29T10:19:35.953Z,7548.00
2019-05-29T10:20:36.069Z,7096.00
2019-05-29T10:21:40.691Z,6508.00
2019-05-29T10:22:37.012Z,6148.00
2019-05-29T10:23:35.909Z,6456.00
2019-05-29T10:24:35.896Z,6516.00
2019-05-29T10:25:35.918Z,6228.00
2019-05-29T10:26:35.938Z,5940.00
2019-05-29T10:27:35.939Z,5784.00
2019-05-29T10:28:50.444Z,5832.00
2019-05-29T10:29:36.935Z,5932.00
2019-05-29T10:30:35.984Z,6176.00
2019-05-29T10:31:35.987Z,6856.00
2019-05-29T10:32:35.822Z,7780.00
2019-05-29T10:33:37.854Z,9552.00
2019-05-29T10:34:35.823Z,7576.00
2019-05-29T10:35:35.908Z,7156.00
2019-05-29T10:36:35.826Z,7360.00
2019-05-29T10:37:35.831Z,8284.00
2019-05-29T10:38:35.793Z,10108.00
2019-05-29T10:39:35.803Z,11060.00
2019-05-29T10:40:35.723Z,10856.00
2019-05-29T10:43:36.902Z,12120.00
2019-05-29T10:44:56.694Z,11068.00
2019-05-29T10:45:35.678Z,10280.00
2019-05-29T10:46:35.793Z,8864.00
2019-05-29T10:47:35.662Z,8004.00
2019-05-29T10:48:35.655Z,9376.00
2019-05-29T10:49:35.650Z,7828.00
2019-05-29T10:50:35.678Z,7980.00
2019-05-29T10:51:35.784Z,8916.00
2019-05-29T10:52:35.658Z,11160.00
2019-05-29T10:53:35.581Z,14064.00
2019-05-29T10:54:39.099Z,17312.00
2019-05-29T10:55:35.575Z,18816.00
2019-05-29T10:56:35.633Z,17856.00
2019-05-29T10:57:35.574Z,17600.00
2019-05-29T10:58:48.391Z,14572.00
2019-05-29T10:59:36.526Z,13124.00
2019-05-29T11:00:38.699Z,12676.00
2019-05-29T11:01:35.595Z,13024.00
2019-05-29T11:02:35.551Z,13848.00
2019-05-29T11:03:35.490Z,12572.00
2019-05-29T11:04:35.597Z,12484.00
2019-05-29T11:05:35.462Z,11204.00
2019-05-29T11:06:39.957Z,12932.00
2019-05-29T11:07:36.622Z,12548.00
2019-05-29T11:08:35.483Z,12916.00
2019-05-29T11:09:44.612Z,36288.00
2019-05-29T11:10:36.460Z,86464.00
2019-05-29T11:11:37.447Z,102816.00
2019-05-29T11:12:39.098Z,103840.00
2019-05-29T11:13:35.429Z,101632.00
2019-05-29T11:15:36.532Z,102400.00
2019-05-29T11:16:39.574Z,103232.00
2019-05-29T11:17:36.507Z,104576.00
2019-05-29T11:18:35.443Z,106144.00
2019-05-29T11:19:35.310Z,105312.00
2019-05-29T11:20:35.298Z,105792.00
2019-05-29T11:21:35.388Z,104000.00
2019-05-29T11:22:35.418Z,100672.00
2019-05-29T11:23:35.311Z,99584.00
2019-05-29T11:24:35.429Z,99520.00
2019-05-29T11:25:35.251Z,98848.00
2019-05-29T11:26:35.278Z,97440.00
2019-05-29T11:27:35.288Z,100320.00
2019-05-29T11:28:35.247Z,100096.00
2019-05-29T11:29:35.214Z,101984.00
2019-05-29T11:30:35.203Z,99840.00
2019-05-29T11:31:35.266Z,98144.00
2019-05-29T11:32:35.254Z,98176.00
2019-05-29T11:33:38.193Z,99136.00
2019-05-29T11:34:35.201Z,100288.00
2019-05-29T11:35:35.209Z,99424.00
2019-05-29T11:37:36.320Z,96448.00
2019-05-29T11:38:35.146Z,98112.00
2019-05-29T11:39:38.251Z,100320.00
2019-05-29T11:40:37.436Z,101792.00
2019-05-29T11:41:35.162Z,103648.00
2019-05-29T11:42:39.229Z,104224.00
2019-05-29T11:43:37.190Z,26784.00
2019-05-29T11:44:35.228Z,20544.00
2019-05-29T11:45:39.156Z,36288.00
2019-05-29T11:46:35.109Z,22240.00
2019-05-29T11:47:35.043Z,17728.00
2019-05-29T11:48:35.031Z,12344.00
2019-05-29T11:49:35.033Z,10008.00
2019-05-29T11:50:35.003Z,13356.00
2019-05-29T11:51:35.003Z,48064.00
2019-05-29T11:52:42.834Z,13788.00
2019-05-29T11:53:38.035Z,99456.00
2019-05-29T11:54:36.721Z,97760.00
2019-05-29T11:55:37.059Z,93600.00
2019-05-29T11:56:35.001Z,94336.00
2019-05-29T11:58:36.210Z,97664.00
2019-05-29T11:59:35.096Z,99360.00
2019-05-29T12:01:49.644Z,98368.00
2019-05-29T12:04:23.163Z,102208.00
2019-05-29T12:07:09.194Z,104128.00
2019-05-29T12:08:09.184Z,84320.00
2019-05-29T12:09:09.170Z,66848.00
2019-05-29T12:10:11.416Z,107136.00
2019-05-29T12:21:52.327Z,103680.00
2019-05-29T12:23:25.138Z,104192.00
2019-05-29T12:25:03.013Z,101088.00
2019-05-29T12:26:20.953Z,97536.00
2019-05-29T12:27:06.964Z,96704.00
2019-05-29T12:28:03.429Z,94496.00
2019-05-29T12:30:03.316Z,94368.00
2019-05-29T12:32:33.038Z,92992.00
2019-05-29T12:33:32.949Z,90496.00
2019-05-29T12:34:33.012Z,92288.00
2019-05-29T12:35:32.945Z,91104.00
2019-05-29T12:36:33.014Z,66528.00
2019-05-29T12:37:11.964Z,35808.00
2019-05-29T12:38:29.591Z,26016.00
2019-05-29T12:39:15.983Z,25216.00
2019-05-29T12:40:14.172Z,24032.00
2019-05-29T12:41:12.978Z,23488.00
2019-05-29T12:42:11.960Z,22912.00
2019-05-29T12:45:13.272Z,21408.00
2019-05-29T12:46:11.848Z,21184.00
2019-05-29T12:47:11.865Z,17408.00